createdAt,value
2019-01-25T00:01:05.581Z,90.40
2019-01-25T00:03:36.357Z,91.90
2019-01-25T00:06:08.066Z,92.27
2019-01-25T00:08:39.396Z,97.23
2019-01-25T00:11:10.451Z,96.53
2019-01-25T00:13:41.586Z,106.00
2019-01-25T00:16:13.104Z,82.53
2019-01-25T00:18:45.113Z,97.87
2019-01-25T00:21:16.313Z,97.40
2019-01-25T00:23:46.566Z,97.50
2019-01-25T00:26:17.240Z,98.80
2019-01-25T00:28:47.467Z,105.27
2019-01-25T00:31:17.727Z,99.40
2019-01-25T00:33:50.855Z,86.67
2019-01-25T00:36:21.199Z,104.73
2019-01-25T00:38:51.561Z,98.37
2019-01-25T00:41:22.797Z,112.30
2019-01-25T00:43:54.285Z,112.27
2019-01-25T00:46:25.569Z,101.00
2019-01-25T00:48:56.639Z,102.93
2019-01-25T00:51:27.607Z,85.10
2019-01-25T00:54:00.309Z,109.90
2019-01-25T00:56:29.952Z,104.80
2019-01-25T00:59:02.754Z,82.27
2019-01-25T01:01:35.281Z,105.37
2019-01-25T01:04:05.744Z,104.30
2019-01-25T01:06:35.954Z,100.43
2019-01-25T01:09:08.347Z,106.43
2019-01-25T01:11:39.297Z,110.93
2019-01-25T01:14:12.313Z,100.17
2019-01-25T01:16:43.520Z,82.60
2019-01-25T01:19:15.193Z,99.83
2019-01-25T01:21:46.554Z,99.83
2019-01-25T01:24:16.457Z,104.00
2019-01-25T01:26:49.718Z,97.77
2019-01-25T01:29:20.470Z,106.03
2019-01-25T01:31:52.739Z,81.47
2019-01-25T01:34:24.621Z,98.97
2019-01-25T01:36:56.096Z,103.70
2019-01-25T01:39:28.659Z,109.43
2019-01-25T01:41:59.090Z,88.67
2019-01-25T01:44:30.197Z,102.73
2019-01-25T01:47:01.267Z,105.47
2019-01-25T01:49:31.533Z,106.80
2019-01-25T01:52:04.122Z,102.43
2019-01-25T01:54:36.245Z,80.97
2019-01-25T01:57:08.233Z,112.00
2019-01-25T01:59:39.543Z,103.20
2019-01-25T02:02:11.764Z,97.13
2019-01-25T02:04:41.923Z,101.40
2019-01-25T02:07:12.213Z,96.63
2019-01-25T02:09:43.045Z,100.40
2019-01-25T02:12:22.839Z,74.63
2019-01-25T02:14:53.252Z,104.67
2019-01-25T02:17:24.378Z,102.47
2019-01-25T02:19:55.125Z,110.17
2019-01-25T02:22:26.241Z,102.90
2019-01-25T02:24:57.792Z,100.67
2019-01-25T02:27:29.317Z,84.27
2019-01-25T02:30:00.494Z,101.33
2019-01-25T02:32:30.909Z,104.80
2019-01-25T02:35:01.202Z,100.93
2019-01-25T02:37:31.497Z,100.47
2019-01-25T02:40:01.807Z,104.87
2019-01-25T02:42:33.317Z,81.23
2019-01-25T02:45:04.421Z,103.73
2019-01-25T02:47:35.791Z,107.73
2019-01-25T02:50:14.193Z,102.57
2019-01-25T02:52:45.321Z,83.07
2019-01-25T02:55:16.769Z,109.37
2019-01-25T02:57:47.733Z,112.13
2019-01-25T03:00:21.154Z,92.77
2019-01-25T03:02:54.057Z,100.93
2019-01-25T03:05:25.753Z,87.47
2019-01-25T03:07:55.702Z,110.37
2019-01-25T03:10:28.935Z,108.23
2019-01-25T03:13:01.823Z,89.33
2019-01-25T03:15:32.952Z,93.70
2019-01-25T03:18:04.137Z,101.60
2019-01-25T03:20:34.152Z,100.70
2019-01-25T03:23:05.247Z,106.30
2019-01-25T03:25:35.231Z,103.20
2019-01-25T03:28:10.062Z,111.77
2019-01-25T03:30:41.053Z,112.20
2019-01-25T03:33:12.064Z,114.37
2019-01-25T03:35:43.336Z,98.33
2019-01-25T03:38:15.215Z,101.07
2019-01-25T03:40:45.364Z,103.20
2019-01-25T03:43:17.345Z,86.93
2019-01-25T03:45:49.005Z,107.60
2019-01-25T03:48:20.274Z,107.37
2019-01-25T03:50:51.407Z,130.17
2019-01-25T03:53:21.715Z,133.27
2019-01-25T03:55:51.989Z,95.63
2019-01-25T03:58:23.068Z,124.60
2019-01-25T04:00:54.361Z,135.63
2019-01-25T04:03:26.434Z,129.43
2019-01-25T04:05:56.128Z,124.83
2019-01-25T04:08:28.306Z,112.13
2019-01-25T04:11:03.634Z,143.67
2019-01-25T04:13:31.539Z,133.10
2019-01-25T04:16:01.835Z,137.70
2019-01-25T04:18:33.075Z,149.37
2019-01-25T04:21:03.358Z,107.13
2019-01-25T04:23:34.516Z,141.67
2019-01-25T04:26:05.633Z,129.60
2019-01-25T04:28:35.928Z,110.50
2019-01-25T04:31:06.229Z,110.40
2019-01-25T04:33:37.355Z,99.83
2019-01-25T04:36:07.758Z,115.17
2019-01-25T04:38:38.893Z,121.27
2019-01-25T04:41:11.817Z,94.33
2019-01-25T04:43:44.234Z,100.23
2019-01-25T04:46:17.161Z,99.37
2019-01-25T04:48:47.423Z,89.10
2019-01-25T04:51:17.327Z,102.77
2019-01-25T04:53:47.397Z,106.47
2019-01-25T04:56:20.234Z,102.57
2019-01-25T04:58:50.503Z,78.70
2019-01-25T05:01:21.845Z,95.63
2019-01-25T05:03:52.058Z,92.20
2019-01-25T05:06:26.153Z,101.90
2019-01-25T05:08:58.599Z,105.83
2019-01-25T05:11:29.730Z,90.07
2019-01-25T05:14:00.906Z,97.13
2019-01-25T05:16:31.181Z,76.27
2019-01-25T05:19:02.309Z,95.97
2019-01-25T05:21:33.377Z,93.30
2019-01-25T05:24:08.992Z,91.77
2019-01-25T05:26:41.569Z,74.80
2019-01-25T05:29:14.808Z,95.00
2019-01-25T05:31:50.421Z,94.17
2019-01-25T05:34:21.525Z,95.13
2019-01-25T05:36:57.475Z,86.07
2019-01-25T05:39:28.502Z,85.50
2019-01-25T05:41:59.934Z,75.20
2019-01-25T05:44:32.422Z,80.50
2019-01-25T05:47:13.313Z,87.93
2019-01-25T05:49:43.493Z,81.80
2019-01-25T05:52:19.685Z,79.03
2019-01-25T05:54:51.237Z,68.97
2019-01-25T05:57:22.301Z,84.27
2019-01-25T05:59:56.581Z,77.10
2019-01-25T06:02:28.517Z,74.80
2019-01-25T06:05:01.285Z,61.80
2019-01-25T06:07:31.702Z,77.00
2019-01-25T06:10:05.201Z,85.90
2019-01-25T06:12:35.487Z,81.13
2019-01-25T06:15:09.666Z,82.23
2019-01-25T06:17:41.285Z,84.83
2019-01-25T06:20:14.487Z,82.00
2019-01-25T06:22:47.335Z,76.73
2019-01-25T06:25:18.550Z,91.17
2019-01-25T06:27:51.286Z,96.27
2019-01-25T06:30:22.606Z,75.53
2019-01-25T06:32:53.773Z,97.90
2019-01-25T06:35:26.034Z,102.40
2019-01-25T06:37:57.083Z,103.57
2019-01-25T06:40:27.169Z,109.93
2019-01-25T06:42:59.707Z,111.00
2019-01-25T06:45:32.591Z,100.70
2019-01-25T06:48:03.798Z,111.37
2019-01-25T06:50:34.970Z,109.83
2019-01-25T06:53:06.182Z,111.47
2019-01-25T06:55:37.425Z,111.30
2019-01-25T06:58:26.983Z,101.03
2019-01-25T07:01:08.515Z,84.50
2019-01-25T07:03:39.558Z,101.17
2019-01-25T07:06:13.089Z,101.43
2019-01-25T07:08:44.241Z,101.93
2019-01-25T07:11:15.960Z,117.60
2019-01-25T07:13:49.596Z,108.73
2019-01-25T07:16:19.864Z,113.03
2019-01-25T07:18:51.906Z,108.20
2019-01-25T07:21:23.321Z,113.30
2019-01-25T07:23:54.121Z,113.17
2019-01-25T07:26:23.891Z,110.27
2019-01-25T07:28:54.986Z,109.40
2019-01-25T07:31:26.354Z,84.10
2019-01-25T07:33:56.646Z,115.37
2019-01-25T07:36:27.017Z,120.57
2019-01-25T07:38:58.180Z,120.50
2019-01-25T07:41:29.675Z,98.00
2019-01-25T07:43:59.187Z,114.73
2019-01-25T07:46:30.979Z,120.17
2019-01-25T07:49:01.178Z,90.70
2019-01-25T07:51:35.305Z,110.67
2019-01-25T07:54:05.780Z,122.93
2019-01-25T07:56:36.089Z,132.87
2019-01-25T07:59:07.712Z,127.67
2019-01-25T08:01:39.679Z,133.23
2019-01-25T08:04:11.634Z,120.73
2019-01-25T08:06:45.838Z,140.80
2019-01-25T08:09:17.562Z,133.13
2019-01-25T08:11:50.512Z,128.77
2019-01-25T08:14:22.142Z,127.63
2019-01-25T08:16:53.340Z,140.97
2019-01-25T08:19:26.356Z,148.83
2019-01-25T08:24:47.266Z,145.77
2019-01-25T08:27:18.488Z,149.43
2019-01-25T08:29:50.787Z,122.83
2019-01-25T08:32:21.850Z,160.27
2019-01-25T08:34:53.034Z,160.43
2019-01-25T08:37:23.366Z,124.10
2019-01-25T08:39:54.502Z,154.87
2019-01-25T08:42:27.330Z,149.80
2019-01-25T08:45:00.514Z,150.40
2019-01-25T08:47:33.858Z,152.93
2019-01-25T08:50:07.202Z,161.53
2019-01-25T08:52:37.924Z,168.57
2019-01-25T08:55:11.113Z,153.63
2019-01-25T08:57:41.369Z,149.03
2019-01-25T09:00:15.984Z,138.30
2019-01-25T09:02:47.294Z,161.27
2019-01-25T09:05:18.248Z,120.23
2019-01-25T09:07:48.449Z,170.23
2019-01-25T09:10:23.595Z,141.90
2019-01-25T09:12:53.798Z,157.87
2019-01-25T09:15:26.666Z,143.67
2019-01-25T09:17:58.724Z,155.70
2019-01-25T09:20:29.518Z,154.70
2019-01-25T09:22:59.316Z,159.87
2019-01-25T09:25:30.838Z,147.43
2019-01-25T09:28:01.973Z,146.57
2019-01-25T09:30:33.542Z,119.63
2019-01-25T09:33:09.930Z,141.57
2019-01-25T09:35:42.697Z,148.77
2019-01-25T09:38:13.841Z,143.83
2019-01-25T09:40:46.258Z,138.90
2019-01-25T09:43:17.465Z,150.10
2019-01-25T09:45:47.670Z,152.07
2019-01-25T09:48:17.857Z,145.60
2019-01-25T09:50:52.819Z,145.33
2019-01-25T09:53:22.009Z,150.33
2019-01-25T09:55:52.161Z,149.90
2019-01-25T09:58:27.127Z,158.37
2019-01-25T10:01:02.394Z,129.23
2019-01-25T10:03:32.962Z,161.60
2019-01-25T10:06:04.942Z,167.83
2019-01-25T10:08:36.676Z,139.73
2019-01-25T10:11:09.515Z,177.27
2019-01-25T10:13:40.763Z,168.27
2019-01-25T10:16:11.049Z,172.00
2019-01-25T10:18:42.089Z,169.57
2019-01-25T10:21:12.450Z,166.13
2019-01-25T10:23:44.049Z,175.67
2019-01-25T10:26:17.131Z,174.70
2019-01-25T10:28:47.663Z,170.50
2019-01-25T10:31:18.777Z,167.63
2019-01-25T10:33:50.958Z,171.50
2019-01-25T10:36:22.401Z,178.43
2019-01-25T10:38:52.621Z,158.40
2019-01-25T10:41:23.854Z,176.50
2019-01-25T10:43:54.042Z,166.30
2019-01-25T10:46:24.886Z,159.67
2019-01-25T10:48:55.798Z,162.37
2019-01-25T10:51:29.898Z,145.87
2019-01-25T10:54:00.270Z,131.53
2019-01-25T10:56:30.679Z,93.00
2019-01-25T10:59:01.836Z,119.80
2019-01-25T11:01:32.973Z,110.17
2019-01-25T11:04:04.177Z,136.67
2019-01-25T11:06:34.401Z,104.33
2019-01-25T11:09:08.058Z,111.80
2019-01-25T11:11:39.429Z,118.83
2019-01-25T11:14:10.579Z,118.60
2019-01-25T11:16:42.485Z,114.87
2019-01-25T11:19:14.995Z,101.40
2019-01-25T11:21:45.129Z,115.87
2019-01-25T11:24:15.481Z,111.10
2019-01-25T11:26:46.610Z,103.13
2019-01-25T11:29:20.530Z,97.50
2019-01-25T11:31:51.732Z,112.40
2019-01-25T11:34:22.330Z,96.77
2019-01-25T11:36:53.667Z,90.73
2019-01-25T11:39:23.849Z,65.07
2019-01-25T11:41:57.323Z,77.83
2019-01-25T11:44:28.714Z,65.60
2019-01-25T11:47:01.617Z,65.80
2019-01-25T11:49:31.999Z,51.17
2019-01-25T11:52:03.307Z,51.50
2019-01-25T11:54:34.573Z,54.23
2019-01-25T11:57:05.815Z,44.00
2019-01-25T11:59:40.217Z,40.83
2019-01-25T12:02:11.452Z,37.47
2019-01-25T12:04:43.946Z,38.03
2019-01-25T12:07:15.066Z,35.57
2019-01-25T12:09:46.511Z,38.43
2019-01-25T12:12:19.404Z,36.10
2019-01-25T12:14:54.728Z,36.03
2019-01-25T12:17:25.122Z,34.53
2019-01-25T12:19:54.601Z,36.37
2019-01-25T12:22:24.070Z,26.20
2019-01-25T12:24:55.296Z,39.70
2019-01-25T12:27:25.486Z,39.33
2019-01-25T12:29:55.686Z,38.57
2019-01-25T12:32:28.528Z,34.40
2019-01-25T12:35:01.540Z,34.50
2019-01-25T12:37:33.531Z,36.23
2019-01-25T12:40:07.784Z,36.77
2019-01-25T12:42:39.538Z,40.60
2019-01-25T12:45:15.898Z,47.73
2019-01-25T12:47:47.107Z,43.77
2019-01-25T12:50:41.977Z,45.67
2019-01-25T12:53:13.863Z,44.43
2019-01-25T12:55:45.011Z,42.60
2019-01-25T12:58:26.039Z,40.50
2019-01-25T13:00:56.446Z,42.43
2019-01-25T13:03:27.804Z,39.17
2019-01-25T13:06:00.025Z,42.17
2019-01-25T13:08:34.375Z,36.93
2019-01-25T13:11:06.405Z,32.40
2019-01-25T13:13:36.605Z,38.97
2019-01-25T13:16:07.740Z,34.87
2019-01-25T13:18:38.869Z,32.67
2019-01-25T13:21:11.504Z,36.67
2019-01-25T13:23:41.778Z,33.77
2019-01-25T13:26:12.938Z,33.13
2019-01-25T13:28:46.699Z,34.87
2019-01-25T13:31:16.919Z,34.13
2019-01-25T13:33:47.270Z,34.63
2019-01-25T13:36:18.389Z,35.90
2019-01-25T13:38:48.602Z,38.87
2019-01-25T13:41:19.833Z,38.33
2019-01-25T13:43:51.803Z,35.07
2019-01-25T13:46:22.942Z,33.43
2019-01-25T13:48:53.383Z,33.33
2019-01-25T13:51:24.626Z,37.00
2019-01-25T13:53:55.753Z,35.63
2019-01-25T13:56:27.800Z,36.13
2019-01-25T13:59:00.298Z,34.17
2019-01-25T14:01:34.663Z,31.87
2019-01-25T14:04:04.695Z,32.00
2019-01-25T14:06:37.513Z,34.87
2019-01-25T14:09:10.214Z,30.73
2019-01-25T14:11:41.450Z,31.90
2019-01-25T14:14:15.088Z,32.13
2019-01-25T14:16:46.228Z,28.57
2019-01-25T14:19:18.791Z,30.43
2019-01-25T14:21:51.660Z,23.57
2019-01-25T14:24:21.850Z,29.40
2019-01-25T14:26:52.990Z,26.17
2019-01-25T14:29:23.294Z,28.00
2019-01-25T14:31:53.542Z,26.10
2019-01-25T14:34:24.812Z,30.67
2019-01-25T14:36:57.253Z,25.07
2019-01-25T14:39:28.684Z,25.57
2019-01-25T14:41:59.854Z,25.63
2019-01-25T14:44:31.317Z,26.43
2019-01-25T14:47:02.585Z,19.03
2019-01-25T14:49:35.397Z,25.90
2019-01-25T14:52:08.622Z,25.90
2019-01-25T14:54:39.090Z,25.80
2019-01-25T14:57:11.206Z,26.83
2019-01-25T14:59:42.448Z,26.70
2019-01-25T15:02:13.654Z,25.90
2019-01-25T15:04:44.995Z,22.90
2019-01-25T15:07:16.133Z,25.73
2019-01-25T15:09:47.841Z,23.47
2019-01-25T15:12:18.927Z,22.50
2019-01-25T15:14:49.561Z,25.70
2019-01-25T15:17:19.754Z,22.83
2019-01-25T15:19:51.976Z,29.63
2019-01-25T15:22:26.001Z,23.07
2019-01-25T15:24:57.159Z,24.23
2019-01-25T15:27:29.869Z,23.43
2019-01-25T15:29:59.952Z,26.00
2019-01-25T15:32:30.758Z,24.30
2019-01-25T15:35:00.842Z,25.27
2019-01-25T15:37:31.899Z,25.23
2019-01-25T15:40:03.217Z,31.20
2019-01-25T15:42:33.105Z,27.77
2019-01-25T15:45:03.305Z,20.00
2019-01-25T15:47:34.021Z,26.70
2019-01-25T15:50:07.031Z,29.17
2019-01-25T15:52:37.969Z,28.53
2019-01-25T15:55:10.680Z,26.40
2019-01-25T15:57:40.861Z,28.63
2019-01-25T16:00:14.622Z,30.83
2019-01-25T16:02:45.369Z,28.47
2019-01-25T16:05:26.955Z,22.27
2019-01-25T16:07:58.070Z,31.43
2019-01-25T16:10:30.429Z,29.77
2019-01-25T16:13:03.034Z,31.17
2019-01-25T16:15:34.273Z,29.70
2019-01-25T16:18:04.609Z,32.43
2019-01-25T16:20:36.281Z,25.10
2019-01-25T16:23:07.394Z,32.13
2019-01-25T16:25:37.469Z,34.37
2019-01-25T16:28:07.460Z,37.50
2019-01-25T16:30:38.630Z,32.87
2019-01-25T16:33:08.598Z,35.97
2019-01-25T16:35:39.325Z,33.93
2019-01-25T16:38:09.390Z,36.57
2019-01-25T16:40:41.933Z,35.80
2019-01-25T16:43:11.894Z,37.20
2019-01-25T16:45:43.550Z,38.23
2019-01-25T16:48:14.293Z,39.60
2019-01-25T16:50:47.815Z,39.07
2019-01-25T16:53:20.618Z,39.57
2019-01-25T16:55:51.252Z,34.17
2019-01-25T16:58:22.378Z,40.20
2019-01-25T17:00:52.610Z,37.90
2019-01-25T17:03:22.449Z,40.57
2019-01-25T17:05:53.509Z,41.17
2019-01-25T17:08:26.530Z,45.17
2019-01-25T17:10:56.469Z,46.83
2019-01-25T17:13:27.333Z,44.30
2019-01-25T17:15:58.460Z,34.73
2019-01-25T17:18:31.370Z,45.73
2019-01-25T17:21:02.125Z,44.40
2019-01-25T17:23:34.889Z,39.63
2019-01-25T17:26:05.625Z,44.70
2019-01-25T17:28:36.339Z,49.27
2019-01-25T17:31:06.423Z,47.97
2019-01-25T17:33:36.217Z,48.20
2019-01-25T17:36:06.479Z,39.10
2019-01-25T17:38:36.394Z,51.60
2019-01-25T17:41:06.363Z,47.33
2019-01-25T17:43:38.451Z,50.43
2019-01-25T17:46:08.331Z,55.07
2019-01-25T17:48:39.149Z,50.43
2019-01-25T17:51:11.882Z,50.10
2019-01-25T17:53:42.965Z,52.87
2019-01-25T17:56:16.374Z,47.90
2019-01-25T17:58:46.097Z,49.57
2019-01-25T18:01:17.213Z,44.83
2019-01-25T18:03:48.049Z,49.63
2019-01-25T18:06:18.805Z,47.97
2019-01-25T18:08:50.154Z,47.17
2019-01-25T18:11:20.129Z,49.80
2019-01-25T18:13:50.817Z,37.13
2019-01-25T18:16:20.611Z,46.13
2019-01-25T18:18:50.385Z,44.90
2019-01-25T18:21:22.038Z,45.33
2019-01-25T18:23:52.147Z,50.80
2019-01-25T18:26:22.517Z,47.47
2019-01-25T18:28:56.429Z,43.03
2019-01-25T18:31:27.001Z,41.20
2019-01-25T18:33:57.898Z,45.50
2019-01-25T18:36:29.055Z,51.67
2019-01-25T18:39:00.185Z,53.87
2019-01-25T18:41:31.730Z,54.00
2019-01-25T18:44:01.516Z,46.23
2019-01-25T18:46:33.336Z,54.57
2019-01-25T18:49:03.494Z,53.70
2019-01-25T18:51:33.674Z,41.40
2019-01-25T18:54:07.973Z,48.13
2019-01-25T18:56:37.847Z,38.23
2019-01-25T18:59:10.256Z,47.37
2019-01-25T19:01:42.765Z,44.37
2019-01-25T19:04:13.853Z,42.33
2019-01-25T19:06:44.611Z,46.40
2019-01-25T19:09:15.611Z,47.70
2019-01-25T19:11:45.426Z,39.57
2019-01-25T19:14:15.605Z,43.57
2019-01-25T19:16:45.693Z,44.17
2019-01-25T19:19:15.588Z,44.97
2019-01-25T19:21:46.285Z,41.17
2019-01-25T19:24:17.842Z,43.87
2019-01-25T19:26:47.633Z,47.23
2019-01-25T19:29:19.944Z,34.93
2019-01-25T19:31:51.605Z,44.07
2019-01-25T19:34:22.998Z,92.63
2019-01-25T19:36:56.058Z,42.73
2019-01-25T19:39:27.257Z,37.27
2019-01-25T19:41:58.431Z,32.73
2019-01-25T19:44:30.625Z,37.83
2019-01-25T19:47:01.818Z,36.63
2019-01-25T19:49:34.674Z,39.00
2019-01-25T19:52:07.372Z,42.13
2019-01-25T19:54:39.926Z,30.40
2019-01-25T19:57:09.938Z,38.37
2019-01-25T19:59:39.720Z,36.63
2019-01-25T20:02:10.559Z,39.70
2019-01-25T20:04:42.229Z,36.30
2019-01-25T20:07:14.165Z,39.57
2019-01-25T20:09:47.019Z,40.50
2019-01-25T20:12:18.976Z,38.67
2019-01-25T20:14:50.407Z,45.73
2019-01-25T20:17:22.158Z,35.20
2019-01-25T20:19:52.910Z,39.73
2019-01-25T20:22:23.893Z,46.20
2019-01-25T20:24:55.697Z,45.07
2019-01-25T20:27:25.461Z,36.27
2019-01-25T20:29:57.457Z,42.47
2019-01-25T20:32:29.869Z,44.50
2019-01-25T20:35:02.592Z,45.10
2019-01-25T20:37:35.142Z,32.63
2019-01-25T20:40:08.553Z,39.60
2019-01-25T20:42:38.052Z,41.13
2019-01-25T20:45:12.519Z,39.20
2019-01-25T20:47:43.725Z,40.93
2019-01-25T20:50:19.777Z,38.53
2019-01-25T20:52:52.241Z,42.27
2019-01-25T20:55:22.068Z,38.90
2019-01-25T20:57:51.533Z,38.37
2019-01-25T21:00:29.482Z,44.87
2019-01-25T21:03:00.848Z,50.17
2019-01-25T21:05:31.754Z,45.20
2019-01-25T21:08:02.738Z,33.53
2019-01-25T21:10:32.859Z,41.37
2019-01-25T21:13:05.310Z,39.43
2019-01-25T21:15:35.706Z,42.27
2019-01-25T21:18:06.918Z,42.30
2019-01-25T21:20:37.921Z,45.37
2019-01-25T21:23:08.846Z,40.20
2019-01-25T21:25:39.779Z,40.10
2019-01-25T21:28:09.787Z,39.37
2019-01-25T21:30:41.594Z,38.17
2019-01-25T21:33:12.693Z,42.73
2019-01-25T21:35:42.472Z,43.33
2019-01-25T21:38:12.645Z,41.33
2019-01-25T21:40:42.533Z,41.57
2019-01-25T21:43:13.238Z,40.47
2019-01-25T21:45:43.534Z,32.13
2019-01-25T21:48:14.799Z,39.37
2019-01-25T21:50:46.581Z,39.30
2019-01-25T21:53:17.893Z,41.97
2019-01-25T21:55:48.713Z,36.10
2019-01-25T21:58:20.083Z,33.97
2019-01-25T22:00:51.617Z,34.33
2019-01-25T22:03:21.513Z,34.23
2019-01-25T22:05:51.385Z,33.07
2019-01-25T22:08:23.318Z,28.57
2019-01-25T22:10:54.705Z,31.47
2019-01-25T22:13:27.177Z,32.40
2019-01-25T22:15:58.160Z,32.77
2019-01-25T22:18:29.242Z,33.20
2019-01-25T22:20:59.459Z,35.10
2019-01-25T22:23:29.751Z,30.03
2019-01-25T22:26:02.290Z,29.17
2019-01-25T22:28:33.382Z,30.60
2019-01-25T22:31:04.653Z,29.27
2019-01-25T22:33:35.676Z,26.83
2019-01-25T22:36:06.381Z,29.53
2019-01-25T22:38:36.840Z,28.50
2019-01-25T22:41:07.929Z,28.73
2019-01-25T22:43:39.930Z,29.67
2019-01-25T22:46:10.946Z,32.33
2019-01-25T22:48:44.708Z,31.80
2019-01-25T22:51:17.209Z,30.70
2019-01-25T22:53:47.368Z,32.13
2019-01-25T22:56:18.196Z,33.50
2019-01-25T22:58:48.015Z,26.97
2019-01-25T23:01:22.710Z,33.93
2019-01-25T23:04:01.945Z,36.53
2019-01-25T23:06:38.912Z,33.50
2019-01-25T23:09:12.998Z,35.53
2019-01-25T23:11:45.973Z,35.17
2019-01-25T23:14:16.602Z,36.30
2019-01-25T23:16:47.774Z,39.23
2019-01-25T23:19:18.615Z,126.70
2019-01-25T23:21:50.518Z,42.33
2019-01-25T23:24:20.569Z,39.17
2019-01-25T23:26:53.439Z,37.73
2019-01-25T23:29:22.786Z,39.53
2019-01-25T23:31:53.868Z,39.37
2019-01-25T23:34:23.737Z,42.23
2019-01-25T23:36:53.942Z,41.70
2019-01-25T23:39:23.720Z,43.30
2019-01-25T23:41:54.722Z,45.40
2019-01-25T23:44:25.877Z,47.27
2019-01-25T23:46:55.761Z,46.97
2019-01-25T23:49:26.769Z,42.90
2019-01-25T23:51:56.657Z,40.63
2019-01-25T23:54:26.759Z,48.47
2019-01-25T23:56:57.641Z,51.07
2019-01-25T23:59:28.639Z,49.93
